sensor_id;sensor_type;location;lat;lon;timestamp;P1;durP1;ratioP1;P2;durP2;ratioP2
5841;SDS011;2947;52.276;9.946;2023-03-11T00:00:18;22.93;;;11.03;;
5841;SDS011;2947;52.276;9.946;2023-03-11T00:02:47;17.10;;;9.10;;
5841;SDS011;2947;52.276;9.946;2023-03-11T00:05:16;20.53;;;11.53;;
5841;SDS011;2947;52.276;9.946;2023-03-11T00:07:47;16.50;;;9.70;;
5841;SDS011;2947;52.276;9.946;2023-03-11T00:10:14;19.33;;;11.10;;
5841;SDS011;2947;52.276;9.946;2023-03-11T00:12:46;18.80;;;10.30;;
5841;SDS011;2947;52.276;9.946;2023-03-11T00:15:12;18.90;;;10.90;;
5841;SDS011;2947;52.276;9.946;2023-03-11T00:17:38;17.47;;;8.30;;
5841;SDS011;2947;52.276;9.946;2023-03-11T00:20:05;16.67;;;9.13;;
5841;SDS011;2947;52.276;9.946;2023-03-11T00:22:32;16.60;;;9.20;;
5841;SDS011;2947;52.276;9.946;2023-03-11T00:24:58;15.30;;;8.60;;
5841;SDS011;2947;52.276;9.946;2023-03-11T00:27:24;18.93;;;9.73;;
5841;SDS011;2947;52.276;9.946;2023-03-11T00:29:50;15.37;;;9.30;;
5841;SDS011;2947;52.276;9.946;2023-03-11T00:32:15;17.20;;;9.30;;
5841;SDS011;2947;52.276;9.946;2023-03-11T00:34:41;16.83;;;7.87;;
5841;SDS011;2947;52.276;9.946;2023-03-11T00:37:07;13.93;;;7.87;;
5841;SDS011;2947;52.276;9.946;2023-03-11T00:39:33;12.57;;;6.87;;
5841;SDS011;2947;52.276;9.946;2023-03-11T00:41:58;13.87;;;7.37;;
5841;SDS011;2947;52.276;9.946;2023-03-11T00:44:24;12.20;;;8.30;;
5841;SDS011;2947;52.276;9.946;2023-03-11T00:46:50;12.80;;;7.37;;
5841;SDS011;2947;52.276;9.946;2023-03-11T00:49:16;12.13;;;7.77;;
5841;SDS011;2947;52.276;9.946;2023-03-11T00:51:41;16.97;;;8.70;;
5841;SDS011;2947;52.276;9.946;2023-03-11T00:54:08;11.33;;;6.57;;
5841;SDS011;2947;52.276;9.946;2023-03-11T00:56:34;11.03;;;6.20;;
5841;SDS011;2947;52.276;9.946;2023-03-11T00:58:59;9.47;;;6.60;;
5841;SDS011;2947;52.276;9.946;2023-03-11T01:01:25;11.50;;;6.33;;
5841;SDS011;2947;52.276;9.946;2023-03-11T01:03:51;13.70;;;7.23;;
5841;SDS011;2947;52.276;9.946;2023-03-11T01:06:16;12.33;;;7.23;;
5841;SDS011;2947;52.276;9.946;2023-03-11T01:08:43;10.33;;;6.47;;
5841;SDS011;2947;52.276;9.946;2023-03-11T01:11:09;13.53;;;7.40;;
5841;SDS011;2947;52.276;9.946;2023-03-11T01:13:35;14.53;;;6.67;;
5841;SDS011;2947;52.276;9.946;2023-03-11T01:16:00;10.53;;;6.43;;
5841;SDS011;2947;52.276;9.946;2023-03-11T01:18:27;8.67;;;5.63;;
5841;SDS011;2947;52.276;9.946;2023-03-11T01:20:53;8.20;;;5.27;;
5841;SDS011;2947;52.276;9.946;2023-03-11T01:23:19;8.87;;;5.00;;
5841;SDS011;2947;52.276;9.946;2023-03-11T01:25:45;9.80;;;5.17;;
5841;SDS011;2947;52.276;9.946;2023-03-11T01:28:13;8.17;;;5.00;;
5841;SDS011;2947;52.276;9.946;2023-03-11T01:30:40;7.17;;;4.60;;
5841;SDS011;2947;52.276;9.946;2023-03-11T01:33:07;7.90;;;4.70;;
5841;SDS011;2947;52.276;9.946;2023-03-11T01:35:38;6.53;;;3.47;;
5841;SDS011;2947;52.276;9.946;2023-03-11T01:38:06;5.57;;;3.57;;
5841;SDS011;2947;52.276;9.946;2023-03-11T01:40:36;6.40;;;3.90;;
5841;SDS011;2947;52.276;9.946;2023-03-11T01:43:34;5.47;;;2.80;;
5841;SDS011;2947;52.276;9.946;2023-03-11T01:48:32;6.07;;;3.07;;
5841;SDS011;2947;52.276;9.946;2023-03-11T01:50:58;4.90;;;2.87;;
5841;SDS011;2947;52.276;9.946;2023-03-11T01:53:24;4.40;;;2.57;;
5841;SDS011;2947;52.276;9.946;2023-03-11T01:55:50;6.50;;;2.80;;
5841;SDS011;2947;52.276;9.946;2023-03-11T01:58:17;5.33;;;3.50;;
5841;SDS011;2947;52.276;9.946;2023-03-11T02:00:49;5.33;;;3.37;;
5841;SDS011;2947;52.276;9.946;2023-03-11T02:03:17;4.40;;;2.73;;
5841;SDS011;2947;52.276;9.946;2023-03-11T02:05:51;5.87;;;3.07;;
5841;SDS011;2947;52.276;9.946;2023-03-11T02:08:20;5.07;;;3.70;;
5841;SDS011;2947;52.276;9.946;2023-03-11T02:10:45;5.93;;;3.13;;
5841;SDS011;2947;52.276;9.946;2023-03-11T02:13:14;5.00;;;3.27;;
5841;SDS011;2947;52.276;9.946;2023-03-11T02:15:41;7.87;;;4.23;;
5841;SDS011;2947;52.276;9.946;2023-03-11T02:18:06;8.70;;;4.40;;
5841;SDS011;2947;52.276;9.946;2023-03-11T02:24:27;5.00;;;3.27;;
5841;SDS011;2947;52.276;9.946;2023-03-11T02:26:59;6.17;;;4.30;;
5841;SDS011;2947;52.276;9.946;2023-03-11T02:29:27;7.57;;;4.00;;
5841;SDS011;2947;52.276;9.946;2023-03-11T02:31:54;10.20;;;3.73;;
5841;SDS011;2947;52.276;9.946;2023-03-11T02:34:33;10.27;;;4.77;;
5841;SDS011;2947;52.276;9.946;2023-03-11T02:37:03;6.13;;;4.10;;
5841;SDS011;2947;52.276;9.946;2023-03-11T02:39:34;6.40;;;4.27;;
5841;SDS011;2947;52.276;9.946;2023-03-11T02:42:07;5.90;;;3.27;;
5841;SDS011;2947;52.276;9.946;2023-03-11T02:45:17;6.87;;;3.87;;
5841;SDS011;2947;52.276;9.946;2023-03-11T02:47:45;6.93;;;3.90;;
5841;SDS011;2947;52.276;9.946;2023-03-11T02:50:12;6.70;;;3.77;;
5841;SDS011;2947;52.276;9.946;2023-03-11T02:52:41;6.10;;;3.00;;
5841;SDS011;2947;52.276;9.946;2023-03-11T02:55:07;6.23;;;3.67;;
5841;SDS011;2947;52.276;9.946;2023-03-11T02:57:35;11.47;;;3.23;;
5841;SDS011;2947;52.276;9.946;2023-03-11T03:00:03;5.83;;;2.90;;
5841;SDS011;2947;52.276;9.946;2023-03-11T03:02:35;5.90;;;3.27;;
5841;SDS011;2947;52.276;9.946;2023-03-11T03:05:01;14.03;;;3.57;;
5841;SDS011;2947;52.276;9.946;2023-03-11T03:07:28;7.27;;;3.67;;
5841;SDS011;2947;52.276;9.946;2023-03-11T03:09:54;6.77;;;3.77;;
5841;SDS011;2947;52.276;9.946;2023-03-11T03:12:19;6.43;;;3.70;;
5841;SDS011;2947;52.276;9.946;2023-03-11T03:14:45;5.10;;;2.97;;
5841;SDS011;2947;52.276;9.946;2023-03-11T03:17:13;4.73;;;3.13;;
5841;SDS011;2947;52.276;9.946;2023-03-11T03:19:38;5.63;;;2.87;;
5841;SDS011;2947;52.276;9.946;2023-03-11T03:22:04;5.87;;;2.93;;
5841;SDS011;2947;52.276;9.946;2023-03-11T03:24:30;6.93;;;3.97;;
5841;SDS011;2947;52.276;9.946;2023-03-11T03:26:56;7.10;;;3.83;;
5841;SDS011;2947;52.276;9.946;2023-03-11T03:29:21;8.17;;;4.07;;
5841;SDS011;2947;52.276;9.946;2023-03-11T03:31:47;6.10;;;3.50;;
5841;SDS011;2947;52.276;9.946;2023-03-11T03:34:13;5.53;;;3.30;;
5841;SDS011;2947;52.276;9.946;2023-03-11T03:36:38;9.23;;;3.13;;
5841;SDS011;2947;52.276;9.946;2023-03-11T03:39:04;4.67;;;2.57;;
5841;SDS011;2947;52.276;9.946;2023-03-11T03:41:30;8.93;;;2.90;;
5841;SDS011;2947;52.276;9.946;2023-03-11T03:43:56;6.93;;;2.80;;
5841;SDS011;2947;52.276;9.946;2023-03-11T03:46:22;5.07;;;3.00;;
5841;SDS011;2947;52.276;9.946;2023-03-11T03:48:48;9.13;;;2.47;;
5841;SDS011;2947;52.276;9.946;2023-03-11T03:51:14;6.80;;;2.80;;
5841;SDS011;2947;52.276;9.946;2023-03-11T03:53:41;8.27;;;2.70;;
5841;SDS011;2947;52.276;9.946;2023-03-11T03:56:08;9.93;;;2.90;;
5841;SDS011;2947;52.276;9.946;2023-03-11T03:58:36;10.80;;;3.10;;
5841;SDS011;2947;52.276;9.946;2023-03-11T04:01:03;10.67;;;2.80;;
5841;SDS011;2947;52.276;9.946;2023-03-11T04:03:30;6.00;;;2.50;;
5841;SDS011;2947;52.276;9.946;2023-03-11T04:06:10;4.87;;;3.40;;
5841;SDS011;2947;52.276;9.946;2023-03-11T04:08:42;5.30;;;2.63;;
5841;SDS011;2947;52.276;9.946;2023-03-11T04:11:08;9.83;;;3.10;;
5841;SDS011;2947;52.276;9.946;2023-03-11T04:13:33;6.13;;;2.57;;
5841;SDS011;2947;52.276;9.946;2023-03-11T04:16:01;5.03;;;2.43;;
5841;SDS011;2947;52.276;9.946;2023-03-11T04:18:28;5.50;;;2.70;;
5841;SDS011;2947;52.276;9.946;2023-03-11T04:20:54;5.73;;;3.00;;
5841;SDS011;2947;52.276;9.946;2023-03-11T04:23:20;19.73;;;3.73;;
5841;SDS011;2947;52.276;9.946;2023-03-11T04:25:46;8.10;;;2.93;;
5841;SDS011;2947;52.276;9.946;2023-03-11T04:28:13;7.60;;;2.30;;
5841;SDS011;2947;52.276;9.946;2023-03-11T04:30:38;6.50;;;3.50;;
5841;SDS011;2947;52.276;9.946;2023-03-11T04:33:05;7.70;;;2.57;;
5841;SDS011;2947;52.276;9.946;2023-03-11T04:35:31;18.53;;;4.50;;
5841;SDS011;2947;52.276;9.946;2023-03-11T04:37:56;3.80;;;2.60;;
5841;SDS011;2947;52.276;9.946;2023-03-11T04:40:24;10.30;;;4.27;;
5841;SDS011;2947;52.276;9.946;2023-03-11T04:42:49;6.53;;;2.67;;
5841;SDS011;2947;52.276;9.946;2023-03-11T04:45:18;6.33;;;2.40;;
5841;SDS011;2947;52.276;9.946;2023-03-11T04:47:47;7.93;;;2.17;;
5841;SDS011;2947;52.276;9.946;2023-03-11T04:50:16;10.43;;;2.67;;
5841;SDS011;2947;52.276;9.946;2023-03-11T04:52:43;6.80;;;2.77;;
5841;SDS011;2947;52.276;9.946;2023-03-11T04:55:10;5.13;;;2.60;;
5841;SDS011;2947;52.276;9.946;2023-03-11T04:57:37;10.47;;;2.50;;
5841;SDS011;2947;52.276;9.946;2023-03-11T05:00:04;6.67;;;2.33;;
5841;SDS011;2947;52.276;9.946;2023-03-11T05:02:33;8.60;;;2.40;;
5841;SDS011;2947;52.276;9.946;2023-03-11T05:04:59;4.70;;;2.10;;
5841;SDS011;2947;52.276;9.946;2023-03-11T05:07:25;3.70;;;2.10;;
5841;SDS011;2947;52.276;9.946;2023-03-11T05:09:51;7.10;;;2.57;;
5841;SDS011;2947;52.276;9.946;2023-03-11T05:12:17;5.90;;;2.23;;
5841;SDS011;2947;52.276;9.946;2023-03-11T05:14:42;5.57;;;2.17;;
5841;SDS011;2947;52.276;9.946;2023-03-11T05:17:08;4.73;;;1.73;;
5841;SDS011;2947;52.276;9.946;2023-03-11T05:19:36;6.60;;;2.20;;
5841;SDS011;2947;52.276;9.946;2023-03-11T05:22:02;5.83;;;2.00;;
5841;SDS011;2947;52.276;9.946;2023-03-11T05:24:29;8.67;;;2.03;;
5841;SDS011;2947;52.276;9.946;2023-03-11T05:26:55;9.90;;;2.20;;
5841;SDS011;2947;52.276;9.946;2023-03-11T05:29:21;5.80;;;2.20;;
5841;SDS011;2947;52.276;9.946;2023-03-11T05:31:48;5.40;;;1.90;;
5841;SDS011;2947;52.276;9.946;2023-03-11T05:34:14;8.20;;;2.00;;
5841;SDS011;2947;52.276;9.946;2023-03-11T05:36:40;3.57;;;1.60;;
5841;SDS011;2947;52.276;9.946;2023-03-11T05:39:07;6.03;;;2.37;;
5841;SDS011;2947;52.276;9.946;2023-03-11T05:41:32;8.33;;;1.60;;
5841;SDS011;2947;52.276;9.946;2023-03-11T05:43:58;2.93;;;1.40;;
5841;SDS011;2947;52.276;9.946;2023-03-11T05:46:24;6.40;;;1.57;;
5841;SDS011;2947;52.276;9.946;2023-03-11T05:48:50;5.23;;;1.77;;
5841;SDS011;2947;52.276;9.946;2023-03-11T05:51:16;6.67;;;1.50;;
5841;SDS011;2947;52.276;9.946;2023-03-11T05:53:43;6.60;;;2.27;;
5841;SDS011;2947;52.276;9.946;2023-03-11T05:56:13;3.67;;;1.97;;
5841;SDS011;2947;52.276;9.946;2023-03-11T05:58:39;7.27;;;2.20;;
5841;SDS011;2947;52.276;9.946;2023-03-11T06:01:09;8.53;;;1.70;;
5841;SDS011;2947;52.276;9.946;2023-03-11T06:03:38;3.57;;;1.77;;
5841;SDS011;2947;52.276;9.946;2023-03-11T06:06:05;4.17;;;2.00;;
5841;SDS011;2947;52.276;9.946;2023-03-11T06:08:32;14.03;;;2.17;;
5841;SDS011;2947;52.276;9.946;2023-03-11T06:11:00;6.20;;;1.87;;
5841;SDS011;2947;52.276;9.946;2023-03-11T06:13:35;5.17;;;1.70;;
5841;SDS011;2947;52.276;9.946;2023-03-11T06:16:02;4.17;;;1.80;;
5841;SDS011;2947;52.276;9.946;2023-03-11T06:18:29;11.53;;;2.10;;
5841;SDS011;2947;52.276;9.946;2023-03-11T06:20:58;4.60;;;1.90;;
5841;SDS011;2947;52.276;9.946;2023-03-11T06:23:26;4.00;;;1.80;;
5841;SDS011;2947;52.276;9.946;2023-03-11T06:25:56;9.80;;;2.20;;
5841;SDS011;2947;52.276;9.946;2023-03-11T06:28:24;7.53;;;1.80;;
5841;SDS011;2947;52.276;9.946;2023-03-11T06:30:51;8.07;;;1.97;;
5841;SDS011;2947;52.276;9.946;2023-03-11T06:33:17;8.90;;;1.93;;
5841;SDS011;2947;52.276;9.946;2023-03-11T06:35:42;4.67;;;1.60;;
5841;SDS011;2947;52.276;9.946;2023-03-11T06:38:08;5.70;;;1.40;;
5841;SDS011;2947;52.276;9.946;2023-03-11T06:40:35;5.17;;;1.43;;
5841;SDS011;2947;52.276;9.946;2023-03-11T06:43:02;6.77;;;2.13;;
5841;SDS011;2947;52.276;9.946;2023-03-11T06:45:27;7.50;;;1.97;;
5841;SDS011;2947;52.276;9.946;2023-03-11T06:47:53;10.90;;;2.37;;
5841;SDS011;2947;52.276;9.946;2023-03-11T06:50:19;7.60;;;1.77;;
5841;SDS011;2947;52.276;9.946;2023-03-11T06:52:47;5.00;;;1.50;;
5841;SDS011;2947;52.276;9.946;2023-03-11T06:55:13;5.33;;;2.00;;
5841;SDS011;2947;52.276;9.946;2023-03-11T06:57:38;8.03;;;2.67;;
5841;SDS011;2947;52.276;9.946;2023-03-11T07:00:04;4.07;;;1.30;;
5841;SDS011;2947;52.276;9.946;2023-03-11T07:02:31;2.20;;;1.20;;
5841;SDS011;2947;52.276;9.946;2023-03-11T07:04:57;4.70;;;1.67;;
5841;SDS011;2947;52.276;9.946;2023-03-11T07:07:23;11.57;;;4.30;;
5841;SDS011;2947;52.276;9.946;2023-03-11T07:09:48;5.73;;;1.27;;
5841;SDS011;2947;52.276;9.946;2023-03-11T07:12:14;4.30;;;1.60;;
5841;SDS011;2947;52.276;9.946;2023-03-11T07:14:41;7.40;;;1.70;;
5841;SDS011;2947;52.276;9.946;2023-03-11T07:17:07;9.20;;;1.93;;
5841;SDS011;2947;52.276;9.946;2023-03-11T07:19:32;8.80;;;1.57;;
5841;SDS011;2947;52.276;9.946;2023-03-11T07:21:58;3.33;;;1.20;;
5841;SDS011;2947;52.276;9.946;2023-03-11T07:24:24;4.97;;;1.70;;
5841;SDS011;2947;52.276;9.946;2023-03-11T07:26:49;3.67;;;1.70;;
5841;SDS011;2947;52.276;9.946;2023-03-11T07:29:15;10.37;;;2.23;;
5841;SDS011;2947;52.276;9.946;2023-03-11T07:31:41;5.10;;;1.37;;
5841;SDS011;2947;52.276;9.946;2023-03-11T07:34:07;4.87;;;1.50;;
5841;SDS011;2947;52.276;9.946;2023-03-11T07:36:36;7.03;;;1.90;;
5841;SDS011;2947;52.276;9.946;2023-03-11T07:39:05;8.23;;;1.47;;
5841;SDS011;2947;52.276;9.946;2023-03-11T07:41:31;6.73;;;1.70;;
5841;SDS011;2947;52.276;9.946;2023-03-11T07:43:59;7.60;;;1.80;;
5841;SDS011;2947;52.276;9.946;2023-03-11T07:46:27;3.57;;;1.33;;
5841;SDS011;2947;52.276;9.946;2023-03-11T07:48:54;5.43;;;1.43;;
5841;SDS011;2947;52.276;9.946;2023-03-11T07:51:21;9.00;;;1.60;;
5841;SDS011;2947;52.276;9.946;2023-03-11T07:53:51;11.37;;;1.67;;
5841;SDS011;2947;52.276;9.946;2023-03-11T07:56:18;11.43;;;2.03;;
5841;SDS011;2947;52.276;9.946;2023-03-11T07:58:46;3.50;;;1.50;;
5841;SDS011;2947;52.276;9.946;2023-03-11T08:01:13;8.33;;;1.93;;
5841;SDS011;2947;52.276;9.946;2023-03-11T08:03:43;7.60;;;2.30;;
5841;SDS011;2947;52.276;9.946;2023-03-11T08:06:18;3.00;;;1.17;;
5841;SDS011;2947;52.276;9.946;2023-03-11T08:08:47;5.60;;;1.93;;
5841;SDS011;2947;52.276;9.946;2023-03-11T08:11:15;8.73;;;1.60;;
5841;SDS011;2947;52.276;9.946;2023-03-11T08:13:43;8.67;;;2.13;;
5841;SDS011;2947;52.276;9.946;2023-03-11T08:16:10;8.97;;;1.70;;
5841;SDS011;2947;52.276;9.946;2023-03-11T08:18:38;11.00;;;1.80;;
5841;SDS011;2947;52.276;9.946;2023-03-11T08:21:05;3.90;;;1.70;;
5841;SDS011;2947;52.276;9.946;2023-03-11T08:23:36;3.00;;;1.43;;
5841;SDS011;2947;52.276;9.946;2023-03-11T08:26:03;8.03;;;1.80;;
5841;SDS011;2947;52.276;9.946;2023-03-11T08:28:31;6.30;;;1.50;;
5841;SDS011;2947;52.276;9.946;2023-03-11T08:30:57;8.43;;;1.93;;
5841;SDS011;2947;52.276;9.946;2023-03-11T08:33:23;5.77;;;1.57;;
5841;SDS011;2947;52.276;9.946;2023-03-11T08:35:49;11.33;;;1.87;;
5841;SDS011;2947;52.276;9.946;2023-03-11T08:38:14;6.83;;;1.87;;
5841;SDS011;2947;52.276;9.946;2023-03-11T08:40:40;4.40;;;1.20;;
5841;SDS011;2947;52.276;9.946;2023-03-11T08:43:06;2.60;;;1.33;;
5841;SDS011;2947;52.276;9.946;2023-03-11T08:45:31;4.50;;;1.83;;
5841;SDS011;2947;52.276;9.946;2023-03-11T08:47:57;4.13;;;1.97;;
5841;SDS011;2947;52.276;9.946;2023-03-11T08:50:23;7.87;;;2.57;;
5841;SDS011;2947;52.276;9.946;2023-03-11T08:52:50;11.67;;;2.47;;
5841;SDS011;2947;52.276;9.946;2023-03-11T08:55:16;3.33;;;1.30;;
5841;SDS011;2947;52.276;9.946;2023-03-11T08:57:48;4.63;;;1.53;;
5841;SDS011;2947;52.276;9.946;2023-03-11T09:00:15;7.50;;;1.70;;
5841;SDS011;2947;52.276;9.946;2023-03-11T09:02:41;11.80;;;1.63;;
5841;SDS011;2947;52.276;9.946;2023-03-11T09:05:07;5.40;;;1.83;;
5841;SDS011;2947;52.276;9.946;2023-03-11T09:07:34;6.53;;;1.93;;
5841;SDS011;2947;52.276;9.946;2023-03-11T09:10:01;7.23;;;1.90;;
5841;SDS011;2947;52.276;9.946;2023-03-11T09:12:28;8.13;;;1.93;;
5841;SDS011;2947;52.276;9.946;2023-03-11T09:14:54;11.57;;;1.97;;
5841;SDS011;2947;52.276;9.946;2023-03-11T09:17:20;6.10;;;2.57;;
5841;SDS011;2947;52.276;9.946;2023-03-11T09:19:46;6.53;;;1.57;;
5841;SDS011;2947;52.276;9.946;2023-03-11T09:22:12;11.23;;;2.60;;
5841;SDS011;2947;52.276;9.946;2023-03-11T09:24:38;7.57;;;1.80;;
5841;SDS011;2947;52.276;9.946;2023-03-11T09:27:04;12.53;;;2.03;;
5841;SDS011;2947;52.276;9.946;2023-03-11T09:29:30;5.00;;;1.87;;
5841;SDS011;2947;52.276;9.946;2023-03-11T09:31:56;7.60;;;2.37;;
5841;SDS011;2947;52.276;9.946;2023-03-11T09:34:22;4.57;;;1.97;;
5841;SDS011;2947;52.276;9.946;2023-03-11T09:36:48;5.93;;;1.80;;
5841;SDS011;2947;52.276;9.946;2023-03-11T09:39:14;9.00;;;2.17;;
5841;SDS011;2947;52.276;9.946;2023-03-11T09:41:53;11.53;;;1.77;;
5841;SDS011;2947;52.276;9.946;2023-03-11T09:47:40;5.67;;;2.10;;
5841;SDS011;2947;52.276;9.946;2023-03-11T09:53:01;4.80;;;1.50;;
5841;SDS011;2947;52.276;9.946;2023-03-11T09:56:05;9.87;;;1.80;;
5841;SDS011;2947;52.276;9.946;2023-03-11T10:01:23;7.30;;;1.47;;
5841;SDS011;2947;52.276;9.946;2023-03-11T10:03:54;5.47;;;1.30;;
5841;SDS011;2947;52.276;9.946;2023-03-11T10:06:25;7.70;;;2.80;;
5841;SDS011;2947;52.276;9.946;2023-03-11T10:08:56;4.30;;;1.90;;
5841;SDS011;2947;52.276;9.946;2023-03-11T10:12:09;8.20;;;2.20;;
5841;SDS011;2947;52.276;9.946;2023-03-11T10:18:44;13.00;;;1.97;;
5841;SDS011;2947;52.276;9.946;2023-03-11T10:21:46;5.50;;;1.97;;
5841;SDS011;2947;52.276;9.946;2023-03-11T10:24:35;9.63;;;1.50;;
5841;SDS011;2947;52.276;9.946;2023-03-11T10:27:23;5.70;;;1.70;;
5841;SDS011;2947;52.276;9.946;2023-03-11T10:30:22;4.50;;;1.50;;
5841;SDS011;2947;52.276;9.946;2023-03-11T10:32:55;4.63;;;1.83;;
5841;SDS011;2947;52.276;9.946;2023-03-11T10:35:44;7.53;;;1.77;;
5841;SDS011;2947;52.276;9.946;2023-03-11T10:38:38;7.70;;;1.83;;
5841;SDS011;2947;52.276;9.946;2023-03-11T10:41:10;5.47;;;1.87;;
5841;SDS011;2947;52.276;9.946;2023-03-11T10:43:45;7.03;;;1.67;;
5841;SDS011;2947;52.276;9.946;2023-03-11T10:46:30;3.70;;;1.77;;
5841;SDS011;2947;52.276;9.946;2023-03-11T10:48:56;5.03;;;1.90;;
5841;SDS011;2947;52.276;9.946;2023-03-11T10:51:22;5.67;;;1.57;;
5841;SDS011;2947;52.276;9.946;2023-03-11T10:53:52;5.23;;;1.63;;
5841;SDS011;2947;52.276;9.946;2023-03-11T10:56:23;5.10;;;1.67;;
5841;SDS011;2947;52.276;9.946;2023-03-11T10:59:01;4.07;;;1.60;;
5841;SDS011;2947;52.276;9.946;2023-03-11T11:01:53;5.03;;;1.70;;
5841;SDS011;2947;52.276;9.946;2023-03-11T11:04:37;8.63;;;1.73;;
5841;SDS011;2947;52.276;9.946;2023-03-11T11:17:53;11.23;;;3.43;;
5841;SDS011;2947;52.276;9.946;2023-03-11T11:20:23;5.83;;;1.60;;
5841;SDS011;2947;52.276;9.946;2023-03-11T11:22:52;15.87;;;1.87;;
5841;SDS011;2947;52.276;9.946;2023-03-11T11:25:24;3.33;;;1.63;;
5841;SDS011;2947;52.276;9.946;2023-03-11T11:28:00;13.40;;;1.70;;
5841;SDS011;2947;52.276;9.946;2023-03-11T11:30:38;11.93;;;2.43;;
5841;SDS011;2947;52.276;9.946;2023-03-11T11:33:25;2.67;;;1.37;;
5841;SDS011;2947;52.276;9.946;2023-03-11T11:35:57;6.10;;;1.60;;
5841;SDS011;2947;52.276;9.946;2023-03-11T11:38:27;9.17;;;1.90;;
5841;SDS011;2947;52.276;9.946;2023-03-11T11:40:55;3.50;;;1.77;;
5841;SDS011;2947;52.276;9.946;2023-03-11T11:43:24;8.73;;;1.50;;
5841;SDS011;2947;52.276;9.946;2023-03-11T11:46:04;10.00;;;1.97;;
5841;SDS011;2947;52.276;9.946;2023-03-11T11:48:53;5.20;;;1.53;;
5841;SDS011;2947;52.276;9.946;2023-03-11T11:51:40;4.50;;;1.73;;
5841;SDS011;2947;52.276;9.946;2023-03-11T11:57:00;7.40;;;1.67;;
5841;SDS011;2947;52.276;9.946;2023-03-11T11:59:38;7.20;;;1.40;;
5841;SDS011;2947;52.276;9.946;2023-03-11T12:04:55;4.17;;;1.90;;
5841;SDS011;2947;52.276;9.946;2023-03-11T12:10:48;6.63;;;1.33;;
5841;SDS011;2947;52.276;9.946;2023-03-11T12:13:31;3.90;;;2.00;;
5841;SDS011;2947;52.276;9.946;2023-03-11T12:16:39;4.70;;;1.67;;
5841;SDS011;2947;52.276;9.946;2023-03-11T12:19:19;8.50;;;1.87;;
5841;SDS011;2947;52.276;9.946;2023-03-11T12:27:49;10.53;;;1.43;;
5841;SDS011;2947;52.276;9.946;2023-03-11T12:30:24;2.73;;;1.40;;
5841;SDS011;2947;52.276;9.946;2023-03-11T12:33:04;3.93;;;1.63;;
5841;SDS011;2947;52.276;9.946;2023-03-11T12:35:37;4.00;;;1.23;;
5841;SDS011;2947;52.276;9.946;2023-03-11T12:45:58;5.53;;;1.67;;
5841;SDS011;2947;52.276;9.946;2023-03-11T12:50:53;3.53;;;1.40;;
5841;SDS011;2947;52.276;9.946;2023-03-11T12:53:40;3.00;;;1.60;;
5841;SDS011;2947;52.276;9.946;2023-03-11T13:01:55;4.83;;;1.40;;
5841;SDS011;2947;52.276;9.946;2023-03-11T13:10:35;10.73;;;1.50;;
5841;SDS011;2947;52.276;9.946;2023-03-11T13:15:49;7.30;;;1.77;;
5841;SDS011;2947;52.276;9.946;2023-03-11T13:20:50;5.13;;;1.63;;
5841;SDS011;2947;52.276;9.946;2023-03-11T13:23:39;8.13;;;1.40;;
5841;SDS011;2947;52.276;9.946;2023-03-11T13:32:04;2.90;;;1.37;;
5841;SDS011;2947;52.276;9.946;2023-03-11T13:38:28;4.20;;;1.37;;
5841;SDS011;2947;52.276;9.946;2023-03-11T13:41:12;5.47;;;1.57;;
5841;SDS011;2947;52.276;9.946;2023-03-11T13:43:49;5.10;;;1.60;;
5841;SDS011;2947;52.276;9.946;2023-03-11T13:46:25;6.70;;;1.23;;
5841;SDS011;2947;52.276;9.946;2023-03-11T13:49:02;5.83;;;1.33;;
5841;SDS011;2947;52.276;9.946;2023-03-11T13:51:37;5.30;;;1.33;;
5841;SDS011;2947;52.276;9.946;2023-03-11T13:57:15;6.40;;;1.03;;
5841;SDS011;2947;52.276;9.946;2023-03-11T13:59:55;4.53;;;1.67;;
5841;SDS011;2947;52.276;9.946;2023-03-11T14:02:22;5.97;;;1.73;;
5841;SDS011;2947;52.276;9.946;2023-03-11T14:04:55;4.50;;;1.20;;
5841;SDS011;2947;52.276;9.946;2023-03-11T14:07:32;3.40;;;1.20;;
5841;SDS011;2947;52.276;9.946;2023-03-11T14:13:55;10.03;;;1.67;;
5841;SDS011;2947;52.276;9.946;2023-03-11T14:18:39;5.47;;;1.33;;
5841;SDS011;2947;52.276;9.946;2023-03-11T14:21:17;3.97;;;1.20;;
5841;SDS011;2947;52.276;9.946;2023-03-11T14:23:46;7.83;;;1.47;;
5841;SDS011;2947;52.276;9.946;2023-03-11T14:26:19;9.53;;;1.40;;
5841;SDS011;2947;52.276;9.946;2023-03-11T14:28:48;2.50;;;0.60;;
5841;SDS011;2947;52.276;9.946;2023-03-11T14:34:16;2.20;;;1.00;;
5841;SDS011;2947;52.276;9.946;2023-03-11T14:36:48;7.60;;;1.17;;
5841;SDS011;2947;52.276;9.946;2023-03-11T14:42:01;3.40;;;1.10;;
5841;SDS011;2947;52.276;9.946;2023-03-11T14:44:50;5.33;;;1.60;;
5841;SDS011;2947;52.276;9.946;2023-03-11T14:47:37;2.83;;;0.90;;
5841;SDS011;2947;52.276;9.946;2023-03-11T14:50:22;9.20;;;1.10;;
5841;SDS011;2947;52.276;9.946;2023-03-11T14:52:56;2.83;;;1.13;;
5841;SDS011;2947;52.276;9.946;2023-03-11T14:55:32;2.20;;;1.00;;
5841;SDS011;2947;52.276;9.946;2023-03-11T15:03:39;5.13;;;1.23;;
5841;SDS011;2947;52.276;9.946;2023-03-11T15:06:19;3.87;;;1.30;;
5841;SDS011;2947;52.276;9.946;2023-03-11T15:09:05;2.90;;;1.13;;
5841;SDS011;2947;52.276;9.946;2023-03-11T15:11:43;6.37;;;1.20;;
5841;SDS011;2947;52.276;9.946;2023-03-11T15:14:16;3.63;;;1.03;;
5841;SDS011;2947;52.276;9.946;2023-03-11T15:17:08;6.30;;;1.07;;
5841;SDS011;2947;52.276;9.946;2023-03-11T15:19:49;8.03;;;1.10;;
5841;SDS011;2947;52.276;9.946;2023-03-11T15:24:52;4.90;;;1.77;;
5841;SDS011;2947;52.276;9.946;2023-03-11T15:30:04;4.37;;;1.10;;
5841;SDS011;2947;52.276;9.946;2023-03-11T15:32:54;4.80;;;1.07;;
5841;SDS011;2947;52.276;9.946;2023-03-11T15:35:23;3.37;;;1.20;;
5841;SDS011;2947;52.276;9.946;2023-03-11T15:38:10;2.53;;;1.37;;
5841;SDS011;2947;52.276;9.946;2023-03-11T15:40:59;3.63;;;1.20;;
5841;SDS011;2947;52.276;9.946;2023-03-11T15:43:30;2.73;;;1.13;;
5841;SDS011;2947;52.276;9.946;2023-03-11T15:46:09;2.13;;;1.00;;
5841;SDS011;2947;52.276;9.946;2023-03-11T15:48:35;5.37;;;1.20;;
5841;SDS011;2947;52.276;9.946;2023-03-11T15:51:00;5.50;;;1.10;;
5841;SDS011;2947;52.276;9.946;2023-03-11T15:53:26;6.27;;;0.90;;
5841;SDS011;2947;52.276;9.946;2023-03-11T15:55:55;5.73;;;1.60;;
5841;SDS011;2947;52.276;9.946;2023-03-11T15:58:26;4.93;;;1.20;;
5841;SDS011;2947;52.276;9.946;2023-03-11T16:00:54;2.00;;;0.80;;
5841;SDS011;2947;52.276;9.946;2023-03-11T16:03:21;9.77;;;1.20;;
5841;SDS011;2947;52.276;9.946;2023-03-11T16:05:48;2.87;;;0.80;;
5841;SDS011;2947;52.276;9.946;2023-03-11T16:08:14;4.50;;;1.50;;
5841;SDS011;2947;52.276;9.946;2023-03-11T16:10:41;10.13;;;1.00;;
5841;SDS011;2947;52.276;9.946;2023-03-11T16:13:13;7.47;;;0.80;;
5841;SDS011;2947;52.276;9.946;2023-03-11T16:15:39;4.03;;;0.90;;
5841;SDS011;2947;52.276;9.946;2023-03-11T16:18:06;4.30;;;1.10;;
5841;SDS011;2947;52.276;9.946;2023-03-11T16:20:35;2.30;;;0.70;;
5841;SDS011;2947;52.276;9.946;2023-03-11T16:23:20;6.43;;;1.03;;
5841;SDS011;2947;52.276;9.946;2023-03-11T16:25:49;4.07;;;0.80;;
5841;SDS011;2947;52.276;9.946;2023-03-11T16:28:19;4.10;;;0.90;;
5841;SDS011;2947;52.276;9.946;2023-03-11T16:30:44;3.67;;;1.77;;
5841;SDS011;2947;52.276;9.946;2023-03-11T16:33:11;3.10;;;1.10;;
5841;SDS011;2947;52.276;9.946;2023-03-11T16:35:37;4.03;;;1.37;;
5841;SDS011;2947;52.276;9.946;2023-03-11T16:38:02;4.43;;;0.97;;
5841;SDS011;2947;52.276;9.946;2023-03-11T16:40:28;6.13;;;1.17;;
5841;SDS011;2947;52.276;9.946;2023-03-11T16:42:56;4.07;;;0.80;;
5841;SDS011;2947;52.276;9.946;2023-03-11T16:45:28;5.20;;;1.10;;
5841;SDS011;2947;52.276;9.946;2023-03-11T16:47:54;3.83;;;1.13;;
5841;SDS011;2947;52.276;9.946;2023-03-11T16:50:19;2.60;;;0.90;;
5841;SDS011;2947;52.276;9.946;2023-03-11T16:52:48;4.27;;;1.03;;
5841;SDS011;2947;52.276;9.946;2023-03-11T16:55:15;10.87;;;1.10;;
5841;SDS011;2947;52.276;9.946;2023-03-11T16:57:40;4.77;;;1.17;;
5841;SDS011;2947;52.276;9.946;2023-03-11T17:00:06;2.30;;;0.90;;
5841;SDS011;2947;52.276;9.946;2023-03-11T17:02:33;6.33;;;1.20;;
5841;SDS011;2947;52.276;9.946;2023-03-11T17:05:01;8.67;;;1.10;;
5841;SDS011;2947;52.276;9.946;2023-03-11T17:07:28;4.37;;;1.10;;
5841;SDS011;2947;52.276;9.946;2023-03-11T17:09:55;7.50;;;1.40;;
5841;SDS011;2947;52.276;9.946;2023-03-11T17:12:23;4.17;;;2.60;;
5841;SDS011;2947;52.276;9.946;2023-03-11T17:14:49;6.83;;;1.00;;
5841;SDS011;2947;52.276;9.946;2023-03-11T17:17:16;3.07;;;0.93;;